Pagina principale
METAR-TAF:

METAR-TAF

Aeroporti :

Base di Solenzara

Solenzara, Francia

latitudine: 41-55N, longitudine: 009-24E, altezza: 8 m

Osservazione

Il bollettino è stato emesso 29 minuti fa, alle 02:00 UTC
Vento 3 kt da nord-ovest, variando fra ovest e nord
Temperature 15°C
Umidità 59%
Pressione 1011 hPa
Visibilità 10 km o più
Nuvoloso ad un'altezza di 4200 ft

METAR: LFKS 220200Z AUTO 32003KT 280V350 9999 BKN042 15/07 Q1011

Ora: 04:29 (02:29 UTC)

Previsione

Il bollettino è stato emesso 16 ore e 29 minuti fa, alle 10:00 UTC
Previsione valida dal 21 alle 11 UTC al 22 alle 09 UTC
Vento 7 kt da est
Visibilità 10 km o più
nessuna nube inferiore a 1500 m e nessun cumulonembo

TAF: LFKS 211000Z 2111/2209 08007KT CAVOK

Osservazioni e previsioni meteorologiche di più di 4000 aeroporti (messaggi METAR e TAF).

Le stazioni disponibili sono rappresentate dai dischi gialli e rossi sulla carta.

Puntare il mouse per vedere il nome della stazione.

Clicca sopra per visualizzare le osservazioni e previsioni meteorologiche.

Per cambiare la mappa : fare clic sui pulsanti verdi con una croce nera per ingrandire, il pulsante verde con un trattino per diminuire, o sulla freccia verde per le mappe adiacenti.


METAR-TAF: